createdAt,value
2023-02-14T00:04:21.578Z,20.71
2023-02-14T00:09:28.155Z,39.28
2023-02-14T00:14:34.389Z,37.85
2023-02-14T00:19:41.430Z,34.64
2023-02-14T00:24:47.880Z,38.57
2023-02-14T00:29:54.729Z,31.78
2023-02-14T00:35:00.888Z,27.85
2023-02-14T00:40:10.072Z,26.43
2023-02-14T00:45:16.354Z,42.50
2023-02-14T00:50:22.978Z,30.35
2023-02-14T00:55:29.152Z,38.92
2023-02-14T01:00:36.365Z,41.42
2023-02-14T01:05:43.619Z,38.21
2023-02-14T01:10:50.409Z,38.21
2023-02-14T01:15:56.776Z,34.28
2023-02-14T01:21:04.399Z,36.07
2023-02-14T01:26:10.892Z,35.71
2023-02-14T01:31:18.183Z,35.00
2023-02-14T01:36:31.187Z,38.92
2023-02-14T01:41:27.570Z,30.71
2023-02-14T01:46:34.306Z,32.85
2023-02-14T01:51:47.824Z,35.00
2023-02-14T01:56:45.232Z,33.21
2023-02-14T02:01:51.902Z,33.21
2023-02-14T02:06:59.443Z,37.14
2023-02-14T02:12:05.979Z,41.07
2023-02-14T02:17:12.296Z,39.64
2023-02-14T02:22:18.979Z,37.85
2023-02-14T02:27:26.238Z,37.85
2023-02-14T02:32:31.584Z,38.92
2023-02-14T02:37:38.054Z,35.71
2023-02-14T02:42:44.626Z,40.71
2023-02-14T02:47:51.041Z,43.57
2023-02-14T02:52:57.942Z,53.92
2023-02-14T02:58:05.293Z,43.21
2023-02-14T03:03:11.827Z,29.64
2023-02-14T03:08:19.376Z,35.35
2023-02-14T03:13:31.846Z,29.28
2023-02-14T03:18:28.203Z,39.28
2023-02-14T03:23:34.880Z,23.93
2023-02-14T03:28:41.007Z,31.78
2023-02-14T03:33:48.605Z,34.64
2023-02-14T03:38:56.058Z,34.64
2023-02-14T03:44:02.526Z,45.35
2023-02-14T03:49:10.839Z,39.64
2023-02-14T03:54:17.487Z,31.78
2023-02-14T03:59:24.093Z,44.28
2023-02-14T04:04:30.616Z,32.85
2023-02-14T04:09:36.807Z,37.50
2023-02-14T04:14:43.173Z,35.71
2023-02-14T04:19:50.796Z,42.50
2023-02-14T04:24:58.195Z,36.42
2023-02-14T04:30:05.723Z,43.57
2023-02-14T04:35:12.369Z,36.07
2023-02-14T04:40:18.892Z,56.42
2023-02-14T04:45:25.507Z,32.14
2023-02-14T04:50:32.936Z,21.07
2023-02-14T04:55:39.960Z,35.71
2023-02-14T05:00:46.230Z,31.43
2023-02-14T05:05:52.934Z,30.71
2023-02-14T05:11:00.036Z,40.35
2023-02-14T05:16:06.377Z,40.35
2023-02-14T05:21:32.917Z,41.07
2023-02-14T05:26:19.799Z,32.50
2023-02-14T05:31:26.869Z,30.00
2023-02-14T05:36:33.691Z,40.71
2023-02-14T05:41:40.003Z,38.92
2023-02-14T05:46:48.200Z,51.07
2023-02-14T05:51:54.506Z,33.92
2023-02-14T05:57:02.706Z,81.06
2023-02-14T06:02:09.175Z,42.14
2023-02-14T06:07:17.063Z,39.28
2023-02-14T06:12:24.932Z,43.92
2023-02-14T06:17:31.689Z,44.28
2023-02-14T06:22:38.043Z,36.07
2023-02-14T06:27:46.190Z,51.42
2023-02-14T06:32:51.357Z,53.57
2023-02-14T06:37:58.597Z,42.50
2023-02-14T06:43:04.427Z,58.57
2023-02-14T06:48:11.365Z,47.49
2023-02-14T06:53:17.569Z,69.64
2023-02-14T06:58:24.587Z,35.35
2023-02-14T07:03:30.699Z,42.85
2023-02-14T07:08:38.461Z,40.35
2023-02-14T15:47:56.675Z,5.17
2023-02-14T15:51:22.873Z,2.95
2023-02-14T15:56:29.116Z,2.03
2023-02-14T16:01:37.803Z,0.00
2023-02-14T16:06:43.753Z,13.80
2023-02-14T16:11:50.480Z,5.00
2023-02-14T16:16:56.677Z,0.00
2023-02-14T16:22:03.281Z,6.43
2023-02-14T16:27:10.716Z,9.28
2023-02-14T16:32:17.689Z,1.79
2023-02-14T16:37:24.091Z,0.36
2023-02-14T16:42:33.397Z,9.64
2023-02-14T16:47:39.593Z,12.50
2023-02-14T16:52:47.295Z,0.00
2023-02-14T16:57:53.298Z,3.21
2023-02-14T17:03:01.705Z,8.93
2023-02-14T17:08:08.180Z,12.50
2023-02-14T17:13:14.835Z,6.43
2023-02-14T17:18:21.293Z,13.21
2023-02-14T17:23:28.346Z,7.86
2023-02-14T17:28:34.502Z,11.43
2023-02-14T17:33:41.818Z,6.78
2023-02-14T17:38:48.864Z,11.07
2023-02-14T17:43:57.394Z,20.00
2023-02-14T17:49:03.565Z,20.35
2023-02-14T17:54:13.472Z,20.71
2023-02-14T17:59:19.551Z,14.64
2023-02-14T18:04:26.759Z,25.00
2023-02-14T18:09:33.026Z,21.07
2023-02-14T18:14:40.720Z,21.07
2023-02-14T18:19:47.718Z,21.07
2023-02-14T18:24:54.478Z,17.86
2023-02-14T18:30:00.963Z,20.35
2023-02-14T18:35:08.142Z,21.07
2023-02-14T18:40:14.369Z,21.07
2023-02-14T18:45:25.143Z,21.07
2023-02-14T18:50:21.531Z,40.00
2023-02-14T18:55:27.684Z,23.21
2023-02-14T19:00:38.804Z,22.14
2023-02-14T19:05:35.597Z,29.64
2023-02-14T19:10:39.825Z,27.50
2023-02-14T19:15:47.315Z,13.57
2023-02-14T19:20:54.818Z,27.50
2023-02-14T19:26:01.563Z,24.64
2023-02-14T19:31:07.829Z,17.86
2023-02-14T19:36:14.720Z,31.43
2023-02-14T19:41:22.036Z,28.21
2023-02-14T19:46:28.794Z,19.64
2023-02-14T19:51:35.156Z,21.07
2023-02-14T19:56:41.693Z,20.00
2023-02-14T20:01:48.253Z,24.64
2023-02-14T20:06:56.585Z,20.00
2023-02-14T20:12:02.946Z,40.00
2023-02-14T20:17:10.008Z,25.35
2023-02-14T20:22:16.431Z,21.78
2023-02-14T20:27:26.777Z,20.35
2023-02-14T20:32:22.972Z,38.92
2023-02-14T20:37:29.777Z,31.43
2023-02-14T20:42:36.451Z,34.28
2023-02-14T20:47:43.751Z,25.71
2023-02-14T20:52:51.067Z,29.28
2023-02-14T20:57:56.718Z,37.85
2023-02-14T21:03:03.595Z,28.21
2023-02-14T21:08:09.808Z,33.21
2023-02-14T21:13:19.029Z,22.50
2023-02-14T21:18:25.230Z,32.50
2023-02-14T21:23:32.307Z,29.64
2023-02-14T21:28:42.509Z,28.93
2023-02-14T21:33:40.027Z,30.00
2023-02-14T21:38:50.645Z,21.07
2023-02-14T21:43:47.724Z,21.43
2023-02-14T21:48:54.082Z,37.14
2023-02-14T21:54:01.274Z,32.50
2023-02-14T21:59:07.985Z,23.93
2023-02-14T22:04:15.083Z,21.43
2023-02-14T22:09:21.315Z,22.50
2023-02-14T22:14:28.026Z,22.14
2023-02-14T22:19:34.555Z,21.07
2023-02-14T22:24:42.064Z,21.43
2023-02-14T22:29:48.442Z,25.35
2023-02-14T22:34:56.139Z,35.71
2023-02-14T22:40:02.749Z,21.07
2023-02-14T22:45:09.365Z,21.43
2023-02-14T22:50:15.500Z,24.28
2023-02-14T22:55:22.610Z,29.64
2023-02-14T23:00:29.082Z,22.50
2023-02-14T23:05:36.587Z,23.21
2023-02-14T23:10:43.034Z,29.64
2023-02-14T23:15:50.187Z,38.57
2023-02-14T23:20:56.767Z,30.00
2023-02-14T23:26:07.654Z,27.14
2023-02-14T23:31:04.138Z,40.71
2023-02-14T23:36:10.691Z,22.50
2023-02-14T23:41:17.202Z,25.35
2023-02-14T23:46:24.439Z,31.78
2023-02-14T23:51:31.890Z,38.21
2023-02-14T23:56:38.457Z,21.07
